Schedule Details

Flight Number: CPX787
Departure: Chek Lap Kok International (VHHH) at N/A
Arrival: Kingsford Smith International Airport (YSSY) at N/A
Route: OCEAN V5 SABNO A583 IBOBI A583 ZAM A461 BUTPA A461 DN J251 TN T74 ENPAG H319 TARAL Y59 RIVET


Current Weather Information
VHHH 180602Z 31011KT 260V360 1300 1200S R07R/1800D R25L/P2000D R07L/2000N R25R/1400U SHRA FEW010 SCT025 18/17 Q1016 TEMPO VRB20G30KT 1500 TSRA SHRA FEW080CB SCT020
YSSY 180600Z 04023KT CAVOK 30/18 Q1004 NOSIG

Route Map